Time;durP1;ratioP1;P1;durP2;ratioP2;P2;SDS_P1;SDS_P2;PMS_P1;PMS_P2;Temp;Humidity;BMP_temperature;BMP_pressure;BME280_temperature;BME280_humidity;BME280_pressure;Samples;Min_cycle;Max_cycle;Signal;HPM_P1;HPM_P2
2022/08/16 00:00:20;;;;;;;5.70;4.50;;;20.10;1.00;;;;;;5025222;28;20417;-62
2022/08/16 00:02:46;;;;;;;9.90;4.40;;;20.10;1.00;;;;;;5028941;28;20450;-63
2022/08/16 00:05:13;;;;;;;4.00;3.60;;;20.00;1.00;;;;;;5029801;28;20440;-63
2022/08/16 00:07:39;;;;;;;5.20;3.57;;;20.10;1.00;;;;;;5029059;28;20164;-64
2022/08/16 00:10:08;;;;;;;4.30;3.87;;;20.20;1.00;;;;;;5030375;28;20457;-64
2022/08/16 00:12:34;;;;;;;8.27;5.20;;;20.10;1.00;;;;;;5030833;28;20430;-63
2022/08/16 00:15:04;;;;;;;4.50;3.60;;;20.20;1.00;;;;;;5021256;28;20446;-63
2022/08/16 00:17:30;;;;;;;4.77;4.27;;;20.30;1.00;;;;;;5024779;28;20434;-63
2022/08/16 00:19:55;;;;;;;4.73;4.13;;;20.30;1.00;;;;;;5029208;28;20774;-63
2022/08/16 00:22:23;;;;;;;4.53;4.00;;;20.30;1.00;;;;;;5029399;28;20210;-63
2022/08/16 00:24:49;;;;;;;5.77;3.80;;;20.20;1.00;;;;;;5029219;28;20184;-63
2022/08/16 00:27:15;;;;;;;4.10;3.70;;;20.20;1.00;;;;;;5029532;28;20563;-63
2022/08/16 00:29:41;;;;;;;5.07;4.27;;;20.30;1.00;;;;;;5029758;28;20425;-62
2022/08/16 00:32:07;;;;;;;6.47;4.00;;;20.50;99.90;;;;;;5028738;28;20430;-63
2022/08/16 00:34:36;;;;;;;6.43;3.93;;;20.60;99.90;;;;;;5029773;28;20171;-63
2022/08/16 00:37:03;;;;;;;5.50;4.30;;;20.50;99.90;;;;;;5028774;28;20462;-62
2022/08/16 00:39:28;;;;;;;7.20;4.13;;;20.40;1.00;;;;;;5029904;28;20429;-64
2022/08/16 00:41:55;;;;;;;13.33;4.10;;;20.30;1.00;;;;;;5028256;28;20430;-64
2022/08/16 00:44:21;;;;;;;5.53;4.00;;;20.30;1.00;;;;;;5029775;28;20650;-63
2022/08/16 00:46:56;;;;;;;7.93;4.40;;;20.10;1.00;;;;;;5028343;28;20468;-62
2022/08/16 00:49:23;;;;;;;10.63;5.37;;;20.10;1.00;;;;;;5030532;28;20492;-62
2022/08/16 00:51:50;;;;;;;6.33;4.13;;;20.10;1.00;;;;;;5029478;28;20438;-63
2022/08/16 00:54:16;;;;;;;5.37;4.40;;;20.20;1.00;;;;;;5029824;28;20410;-63
2022/08/16 00:56:45;;;;;;;5.70;4.50;;;20.20;1.00;;;;;;5023220;28;21062;-63
2022/08/16 00:59:14;;;;;;;4.50;4.10;;;20.10;1.00;;;;;;5009223;28;20403;-62
2022/08/16 01:01:41;;;;;;;5.27;4.77;;;20.00;1.00;;;;;;5023324;28;20430;-63
2022/08/16 01:04:08;;;;;;;6.60;4.77;;;19.90;1.00;;;;;;5030049;28;20421;-63
2022/08/16 01:06:36;;;;;;;4.47;3.90;;;19.90;1.00;;;;;;5030125;28;20503;-63
2022/08/16 01:09:05;;;;;;;3.57;3.23;;;19.90;1.00;;;;;;5021934;28;20899;-63
2022/08/16 01:11:32;;;;;;;6.80;4.63;;;20.10;1.00;;;;;;5021114;28;20498;-63
2022/08/16 01:14:22;;;;;;;6.83;5.30;;;20.00;1.00;;;;;;5009703;28;20411;-62
2022/08/16 01:16:49;;;;;;;5.07;4.57;;;20.00;1.00;;;;;;5012536;28;20781;-63
2022/08/16 01:19:38;;;;;;;4.57;4.17;;;20.00;1.00;;;;;;5028531;28;20464;-63
2022/08/16 01:22:21;;;;;;;5.50;4.17;;;20.00;1.00;;;;;;5016843;28;20423;-62
2022/08/16 01:24:55;;;;;;;5.50;4.70;;;19.90;1.00;;;;;;5029493;28;20935;-63
2022/08/16 01:27:28;;;;;;;5.20;4.30;;;19.90;1.00;;;;;;5028641;28;20425;-62
2022/08/16 01:30:11;;;;;;;5.17;4.67;;;19.70;1.00;;;;;;5027829;28;20433;-64
2022/08/16 01:32:41;;;;;;;9.03;5.30;;;19.90;1.00;;;;;;5025984;28;20475;-66
2022/08/16 01:35:21;;;;;;;6.27;5.37;;;19.90;1.00;;;;;;5027272;28;20939;-63
2022/08/16 01:37:53;;;;;;;14.33;5.20;;;19.80;1.00;;;;;;5028157;28;20425;-63
2022/08/16 01:40:22;;;;;;;8.13;5.63;;;19.80;1.00;;;;;;5026599;28;20431;-63
2022/08/16 01:42:49;;;;;;;5.50;5.00;;;19.90;1.00;;;;;;5024375;28;20440;-64
2022/08/16 01:45:17;;;;;;;11.00;5.83;;;19.90;1.00;;;;;;5025888;28;20859;-63
2022/08/16 01:47:44;;;;;;;6.50;5.90;;;19.80;1.00;;;;;;5029019;28;20440;-63
2022/08/16 01:50:11;;;;;;;7.00;5.70;;;19.80;1.00;;;;;;5026667;28;20430;-64
2022/08/16 01:52:38;;;;;;;5.83;5.30;;;19.80;1.00;;;;;;5026473;28;20430;-64
2022/08/16 01:55:05;;;;;;;8.40;4.97;;;19.80;1.00;;;;;;5027583;28;20430;-63
2022/08/16 01:57:30;;;;;;;5.60;5.00;;;19.90;1.00;;;;;;5027193;28;20433;-64
2022/08/16 01:59:56;;;;;;;7.43;6.83;;;19.90;1.00;;;;;;5027666;28;20415;-63
2022/08/16 02:02:25;;;;;;;5.33;4.83;;;19.80;1.00;;;;;;5027180;28;20186;-64
2022/08/16 02:04:51;;;;;;;8.10;5.83;;;19.90;1.00;;;;;;5028198;28;20632;-64
2022/08/16 02:07:18;;;;;;;13.50;6.10;;;19.80;1.00;;;;;;5027010;28;20494;-64
2022/08/16 02:09:46;;;;;;;12.60;6.07;;;20.00;1.00;;;;;;5028370;28;20394;-63
2022/08/16 02:12:12;;;;;;;23.27;6.47;;;20.00;1.00;;;;;;5017707;28;20446;-64
2022/08/16 02:14:38;;;;;;;8.93;6.03;;;19.80;1.00;;;;;;5027880;28;20552;-65
2022/08/16 02:17:07;;;;;;;5.77;5.23;;;19.60;1.00;;;;;;5027198;28;20480;-64
2022/08/16 02:19:35;;;;;;;7.60;5.83;;;19.50;1.00;;;;;;5021164;28;20778;-64
2022/08/16 02:22:01;;;;;;;6.17;5.60;;;19.50;1.00;;;;;;5027012;28;20430;-62
2022/08/16 02:24:27;;;;;;;6.63;6.13;;;19.50;1.00;;;;;;5028958;28;20772;-61
2022/08/16 02:26:53;;;;;;;7.53;5.60;;;19.50;1.00;;;;;;5028470;28;20548;-63
2022/08/16 02:29:19;;;;;;;6.50;5.80;;;19.60;1.00;;;;;;5026261;28;20508;-62
2022/08/16 02:31:48;;;;;;;10.20;6.30;;;19.60;1.00;;;;;;5028227;28;20490;-61
2022/08/16 02:34:14;;;;;;;7.47;5.90;;;19.60;1.00;;;;;;5027926;28;20430;-63
2022/08/16 02:36:41;;;;;;;12.57;6.50;;;19.60;1.00;;;;;;5029863;28;20469;-62
2022/08/16 02:39:08;;;;;;;9.00;5.97;;;19.60;1.00;;;;;;5009526;28;20497;-62
2022/08/16 02:41:36;;;;;;;6.47;5.83;;;19.70;1.00;;;;;;5025284;28;20439;-62
2022/08/16 02:44:04;;;;;;;7.07;5.70;;;19.70;1.00;;;;;;5026705;28;20929;-62
2022/08/16 02:46:30;;;;;;;9.73;6.70;;;19.70;1.00;;;;;;5002544;28;20458;-61
2022/08/16 02:48:55;;;;;;;10.63;5.90;;;19.60;1.00;;;;;;5026796;28;21018;-63
2022/08/16 02:51:21;;;;;;;7.23;5.70;;;19.50;1.00;;;;;;5028183;28;20525;-63
2022/08/16 02:53:47;;;;;;;6.33;5.70;;;19.40;1.00;;;;;;5027178;28;20207;-62
2022/08/16 02:56:15;;;;;;;9.40;6.30;;;19.30;1.00;;;;;;5026412;28;20257;-63
2022/08/16 02:58:41;;;;;;;7.60;5.87;;;19.30;1.00;;;;;;5027322;28;20468;-63
2022/08/16 03:01:08;;;;;;;9.07;6.30;;;19.40;1.00;;;;;;5017895;28;20576;-59
2022/08/16 03:03:35;;;;;;;6.30;5.70;;;19.50;1.00;;;;;;5026346;28;20418;-62
2022/08/16 03:06:01;;;;;;;6.43;5.83;;;19.50;1.00;;;;;;5027210;28;20876;-63
2022/08/16 03:08:27;;;;;;;8.13;6.77;;;19.50;1.00;;;;;;5025754;28;20911;-62
2022/08/16 03:10:53;;;;;;;15.47;6.87;;;19.60;1.00;;;;;;5026353;28;20533;-62
2022/08/16 03:13:19;;;;;;;10.73;6.53;;;19.50;1.00;;;;;;5027573;28;20179;-63
2022/08/16 03:15:46;;;;;;;8.63;6.57;;;19.30;1.00;;;;;;5027445;28;20219;-63
2022/08/16 03:18:12;;;;;;;6.93;6.00;;;19.30;1.00;;;;;;5027431;28;20406;-62
2022/08/16 03:20:38;;;;;;;9.73;6.50;;;19.20;1.00;;;;;;5027084;28;20517;-62
2022/08/16 03:23:05;;;;;;;10.90;6.80;;;19.20;1.00;;;;;;5027763;28;20491;-63
2022/08/16 03:25:31;;;;;;;7.40;6.70;;;19.20;1.00;;;;;;5026119;28;20552;-62
2022/08/16 03:27:57;;;;;;;11.47;5.80;;;19.20;1.00;;;;;;5027076;28;20947;-62
2022/08/16 03:30:26;;;;;;;11.30;7.37;;;19.30;1.00;;;;;;5026834;28;20426;-64
2022/08/16 03:32:52;;;;;;;15.83;7.57;;;19.30;1.00;;;;;;5025979;28;20233;-64
2022/08/16 03:35:20;;;;;;;15.40;8.20;;;19.30;1.00;;;;;;5027060;28;20604;-63
2022/08/16 03:37:48;;;;;;;8.40;6.60;;;19.10;1.00;;;;;;5026836;28;20442;-63
2022/08/16 03:40:14;;;;;;;7.67;6.83;;;19.00;1.00;;;;;;5026030;28;20560;-64
2022/08/16 03:42:40;;;;;;;15.47;7.17;;;19.10;1.00;;;;;;5028162;28;20757;-64
2022/08/16 03:45:07;;;;;;;24.67;8.50;;;19.00;1.00;;;;;;5028846;28;20441;-64
2022/08/16 03:47:34;;;;;;;17.20;8.07;;;18.90;1.00;;;;;;5030760;28;20199;-62
2022/08/16 03:50:01;;;;;;;12.53;7.10;;;19.00;1.00;;;;;;5012365;28;20406;-63
2022/08/16 03:52:26;;;;;;;19.40;7.90;;;18.90;1.00;;;;;;5030497;28;20437;-65
2022/08/16 03:54:52;;;;;;;14.50;6.70;;;18.90;1.00;;;;;;5028840;28;20441;-65
2022/08/16 03:57:18;;;;;;;16.43;7.70;;;18.90;1.00;;;;;;5029605;28;20176;-65
2022/08/16 03:59:44;;;;;;;11.03;7.23;;;19.00;1.00;;;;;;5030184;28;20230;-64
2022/08/16 04:02:11;;;;;;;19.37;7.97;;;19.00;1.00;;;;;;5028678;28;20418;-64
2022/08/16 04:04:37;;;;;;;7.63;6.67;;;19.10;1.00;;;;;;5030305;28;20258;-64
2022/08/16 04:07:05;;;;;;;10.20;7.23;;;19.10;1.00;;;;;;5030794;28;20449;-63
2022/08/16 04:09:32;;;;;;;25.23;8.77;;;19.00;1.00;;;;;;5022727;28;20842;-64
2022/08/16 04:11:58;;;;;;;24.70;8.90;;;18.90;1.00;;;;;;5029820;28;20445;-64
2022/08/16 04:14:23;;;;;;;18.17;7.50;;;18.80;1.00;;;;;;5029685;28;20736;-64
2022/08/16 04:16:49;;;;;;;13.23;7.53;;;19.00;1.00;;;;;;5030024;28;20680;-64
2022/08/16 04:19:15;;;;;;;10.10;6.40;;;18.80;1.00;;;;;;5025257;28;20288;-64
2022/08/16 04:21:41;;;;;;;10.27;7.17;;;18.60;1.00;;;;;;5029068;28;20199;-64
2022/08/16 04:24:06;;;;;;;19.13;8.70;;;18.50;1.00;;;;;;5030068;28;20174;-64
2022/08/16 04:26:32;;;;;;;15.13;7.93;;;18.40;1.00;;;;;;5029864;28;20206;-64
2022/08/16 04:28:59;;;;;;;13.93;7.60;;;18.30;99.90;;;;;;5029079;28;20186;-61
2022/08/16 04:31:25;;;;;;;21.03;8.50;;;18.00;99.90;;;;;;5028526;28;20509;-63
2022/08/16 04:33:52;;;;;;;19.57;7.63;;;18.20;99.90;;;;;;5029834;28;20434;-63
2022/08/16 04:36:18;;;;;;;16.37;7.57;;;18.20;99.90;;;;;;5032038;28;20207;-64
2022/08/16 04:38:44;;;;;;;10.53;6.80;;;18.30;99.90;;;;;;5019898;28;20418;-63
2022/08/16 04:41:10;;;;;;;17.90;8.10;;;18.30;99.90;;;;;;5029010;28;20500;-64
2022/08/16 04:43:37;;;;;;;11.33;6.50;;;18.30;99.90;;;;;;5027650;28;20424;-63
2022/08/16 04:46:04;;;;;;;10.60;7.60;;;18.30;99.90;;;;;;5029138;28;20446;-63
2022/08/16 04:48:30;;;;;;;11.83;7.03;;;18.50;56.70;;;;;;5020065;28;20414;-64
2022/08/16 04:50:56;;;;;;;14.23;7.00;;;18.70;1.00;;;;;;5026941;28;20460;-63
2022/08/16 04:53:22;;;;;;;17.03;7.00;;;19.00;1.00;;;;;;5029683;28;20182;-63
2022/08/16 04:55:47;;;;;;;14.53;6.53;;;19.20;1.00;;;;;;5027286;28;20203;-63
2022/08/16 04:58:13;;;;;;;13.00;7.10;;;19.20;1.00;;;;;;5027064;28;20803;-64
2022/08/16 05:00:39;;;;;;;10.10;7.40;;;19.30;1.00;;;;;;5028834;28;20176;-63
2022/08/16 05:03:08;;;;;;;8.57;7.63;;;19.40;1.00;;;;;;5022503;28;20544;-64
2022/08/16 05:05:35;;;;;;;9.03;7.17;;;19.60;1.00;;;;;;5028838;28;20692;-64
2022/08/16 05:08:01;;;;;;;15.90;8.90;;;19.50;1.00;;;;;;5028155;28;20414;-64
2022/08/16 05:10:28;;;;;;;16.20;8.00;;;19.20;1.00;;;;;;5027678;28;20806;-63
2022/08/16 05:12:54;;;;;;;13.03;7.53;;;19.20;1.00;;;;;;5021125;28;20175;-63
2022/08/16 05:15:20;;;;;;;26.17;9.87;;;19.20;1.00;;;;;;5026581;28;20502;-63
2022/08/16 05:17:46;;;;;;;20.73;8.77;;;19.80;1.00;;;;;;5006894;28;20403;-64
2022/08/16 05:20:13;;;;;;;15.90;7.00;;;20.80;99.90;;;;;;5007015;28;20407;-63
2022/08/16 05:22:39;;;;;;;13.17;8.67;;;21.40;99.90;;;;;;5009062;28;20434;-65
2022/08/16 05:25:06;;;;;;;13.50;8.30;;;21.60;99.90;;;;;;5026167;28;20406;-66
2022/08/16 05:27:32;;;;;;;15.80;7.57;;;21.20;99.90;;;;;;5020713;28;20804;-67
2022/08/16 05:29:58;;;;;;;22.83;9.43;;;21.30;99.90;;;;;;5017927;28;20415;-66
2022/08/16 05:32:24;;;;;;;19.23;7.53;;;21.50;99.90;;;;;;5026153;28;20171;-66
2022/08/16 05:34:50;;;;;;;23.20;9.43;;;21.40;99.90;;;;;;5018134;28;20167;-67
2022/08/16 05:37:15;;;;;;;14.87;7.60;;;21.80;99.90;;;;;;5026521;28;20202;-66
2022/08/16 05:39:41;;;;;;;11.87;7.03;;;22.00;99.90;;;;;;5026397;28;20167;-65
2022/08/16 05:42:07;;;;;;;14.93;9.00;;;22.30;99.90;;;;;;5026297;28;20270;-66
2022/08/16 05:44:33;;;;;;;17.07;8.13;;;22.10;99.90;;;;;;5023288;28;20165;-66
2022/08/16 05:47:00;;;;;;;27.00;9.43;;;21.90;99.90;;;;;;5006556;28;20277;-65
2022/08/16 05:49:28;;;;;;;16.43;8.70;;;21.70;99.90;;;;;;5007481;28;20168;-65
2022/08/16 05:51:54;;;;;;;15.67;8.17;;;21.80;99.90;;;;;;5007445;28;20549;-66
2022/08/16 05:54:21;;;;;;;26.30;8.93;;;22.00;99.90;;;;;;5024273;28;20522;-66
2022/08/16 05:56:47;;;;;;;12.63;7.63;;;21.70;99.90;;;;;;5025001;28;20470;-64
2022/08/16 05:59:14;;;;;;;13.00;8.63;;;21.40;99.90;;;;;;5022044;28;20971;-67
2022/08/16 06:01:45;;;;;;;29.87;9.20;;;21.50;99.90;;;;;;5026567;28;20757;-66
2022/08/16 06:04:13;;;;;;;13.30;7.47;;;21.60;99.90;;;;;;5026651;28;20696;-66
2022/08/16 06:06:40;;;;;;;21.93;9.17;;;21.50;99.90;;;;;;5026248;28;20438;-66
2022/08/16 06:09:06;;;;;;;14.47;6.43;;;21.50;99.90;;;;;;5025601;28;20748;-65
2022/08/16 06:11:32;;;;;;;11.70;7.57;;;21.50;99.90;;;;;;5025955;28;20523;-65
2022/08/16 06:14:00;;;;;;;9.90;8.17;;;21.50;99.90;;;;;;5026228;28;20179;-67
2022/08/16 06:16:25;;;;;;;20.50;9.40;;;21.40;99.90;;;;;;5025794;28;20215;-66
2022/08/16 06:18:51;;;;;;;18.23;8.60;;;21.50;99.90;;;;;;5025602;28;20411;-66
2022/08/16 06:21:17;;;;;;;18.70;9.43;;;21.70;99.90;;;;;;5026143;28;20168;-66
2022/08/16 06:23:42;;;;;;;15.87;6.83;;;21.80;99.90;;;;;;5026421;28;20187;-67
2022/08/16 06:26:08;;;;;;;28.57;10.17;;;21.80;99.90;;;;;;5018880;28;20302;-67
2022/08/16 06:28:34;;;;;;;19.10;8.10;;;22.20;99.90;;;;;;5023288;28;20175;-66
2022/08/16 06:31:00;;;;;;;29.97;9.17;;;22.70;99.90;;;;;;5015584;28;20184;-65
2022/08/16 06:33:26;;;;;;;12.30;7.17;;;23.10;99.90;;;;;;5025110;28;20665;-65
2022/08/16 06:35:53;;;;;;;13.40;7.70;;;23.30;99.90;;;;;;5016691;28;20208;-65
2022/08/16 06:38:20;;;;;;;9.37;7.67;;;23.40;99.90;;;;;;5005391;28;20249;-66
2022/08/16 06:40:45;;;;;;;13.40;7.80;;;23.40;99.90;;;;;;5013138;28;20406;-66
2022/08/16 06:43:11;;;;;;;20.83;9.27;;;23.50;99.90;;;;;;5027094;28;20403;-65
2022/08/16 06:45:37;;;;;;;17.50;8.20;;;23.70;99.90;;;;;;5028255;28;20184;-65
2022/08/16 06:48:04;;;;;;;18.33;6.90;;;23.30;99.90;;;;;;5024534;28;20645;-66
2022/08/16 06:50:31;;;;;;;13.10;8.00;;;23.50;99.90;;;;;;4991071;28;20534;-65
2022/08/16 06:52:57;;;;;;;18.63;8.37;;;23.70;99.90;;;;;;5018725;28;20438;-66
2022/08/16 06:55:23;;;;;;;13.77;8.67;;;23.80;99.90;;;;;;5014887;28;20458;-66
2022/08/16 06:57:52;;;;;;;13.27;7.50;;;23.70;99.90;;;;;;5021549;28;20488;-67
2022/08/16 07:00:19;;;;;;;13.50;7.57;;;23.50;99.90;;;;;;5027583;28;20418;-65
2022/08/16 07:02:45;;;;;;;14.53;7.23;;;23.50;99.90;;;;;;5008891;28;20407;-64
2022/08/16 07:05:14;;;;;;;15.70;6.80;;;23.50;99.90;;;;;;5019949;28;20441;-65
2022/08/16 07:07:41;;;;;;;16.93;6.47;;;23.70;99.90;;;;;;5028311;28;20407;-66
2022/08/16 07:10:08;;;;;;;15.47;7.30;;;23.80;99.90;;;;;;5027389;28;20453;-65
2022/08/16 07:12:34;;;;;;;12.20;6.20;;;24.10;99.90;;;;;;5028457;28;20881;-65
2022/08/16 07:15:00;;;;;;;14.47;5.97;;;24.40;99.90;;;;;;5026516;28;20430;-66
2022/08/16 07:17:26;;;;;;;55.57;8.60;;;24.70;99.90;;;;;;5027217;28;20816;-65
2022/08/16 07:19:54;;;;;;;14.03;6.70;;;24.60;99.90;;;;;;5031853;28;20195;-66
2022/08/16 07:22:21;;;;;;;11.90;6.50;;;24.80;99.90;;;;;;5032452;28;20874;-65
2022/08/16 07:24:47;;;;;;;13.90;5.40;;;24.80;99.90;;;;;;5030383;28;20464;-65
2022/08/16 07:27:13;;;;;;;15.63;6.93;;;25.00;99.90;;;;;;5031472;28;20806;-66
2022/08/16 07:29:39;;;;;;;27.13;6.13;;;25.10;99.90;;;;;;5031677;28;20408;-66
2022/08/16 07:32:06;;;;;;;14.43;6.40;;;25.30;99.90;;;;;;5031514;28;20907;-66
2022/08/16 07:34:32;;;;;;;16.27;7.23;;;25.40;99.90;;;;;;5031500;28;20520;-65
2022/08/16 07:37:05;;;;;;;12.20;6.60;;;25.10;99.90;;;;;;5030472;28;20472;-67
2022/08/16 07:39:31;;;;;;;8.00;6.10;;;25.10;99.90;;;;;;5031761;28;20488;-67
2022/08/16 07:41:57;;;;;;;40.87;12.23;;;25.50;99.90;;;;;;5022339;28;20452;-67
2022/08/16 07:44:23;;;;;;;11.23;6.27;;;25.80;99.90;;;;;;5030540;28;20163;-67
2022/08/16 07:46:48;;;;;;;14.17;5.80;;;25.50;99.90;;;;;;5030742;28;20196;-67
2022/08/16 07:49:14;;;;;;;11.50;5.13;;;25.80;99.90;;;;;;5022358;28;20180;-66
2022/08/16 07:51:40;;;;;;;9.73;6.40;;;25.80;99.90;;;;;;5015485;28;20180;-66
2022/08/16 07:54:08;;;;;;;28.60;9.07;;;25.90;99.90;;;;;;5027584;28;20176;-66
2022/08/16 07:56:34;;;;;;;5.77;5.27;;;25.90;99.90;;;;;;5021293;28;20206;-68
2022/08/16 07:59:00;;;;;;;22.80;7.80;;;25.90;99.90;;;;;;5017907;28;20407;-66
2022/08/16 08:01:28;;;;;;;27.37;7.90;;;26.00;99.90;;;;;;5021314;28;20167;-67
2022/08/16 08:03:55;;;;;;;58.50;9.00;;;25.80;99.90;;;;;;5029515;28;20443;-66
2022/08/16 08:06:22;;;;;;;9.20;6.57;;;26.10;99.90;;;;;;5030940;28;20785;-68
2022/08/16 08:08:48;;;;;;;8.37;6.50;;;26.00;99.90;;;;;;5012873;28;20456;-68
2022/08/16 08:11:15;;;;;;;10.63;6.03;;;25.30;99.90;;;;;;5027853;28;20924;-66
2022/08/16 08:13:42;;;;;;;6.60;5.53;;;25.90;99.90;;;;;;5031330;28;20229;-67
2022/08/16 08:16:08;;;;;;;7.80;6.87;;;26.40;99.90;;;;;;5012899;28;20457;-66
2022/08/16 08:18:35;;;;;;;14.37;6.30;;;26.70;99.90;;;;;;5028731;28;20422;-67
2022/08/16 08:21:01;;;;;;;16.03;6.30;;;26.50;99.90;;;;;;5028729;28;21096;-66
2022/08/16 08:23:27;;;;;;;19.33;7.13;;;26.50;99.90;;;;;;5030930;28;20528;-68
2022/08/16 08:25:53;;;;;;;20.80;7.80;;;26.10;99.90;;;;;;5030311;28;20422;-68
2022/08/16 08:28:19;;;;;;;17.30;5.80;;;26.20;99.90;;;;;;5029630;28;20925;-68
2022/08/16 08:30:45;;;;;;;13.60;5.57;;;26.60;99.90;;;;;;5029002;28;20568;-69
2022/08/16 08:33:11;;;;;;;13.33;6.60;;;27.00;99.90;;;;;;5029798;28;20489;-66
2022/08/16 08:35:37;;;;;;;27.83;7.87;;;27.10;99.90;;;;;;5040361;28;20579;-68
2022/08/16 08:38:06;;;;;;;18.53;5.50;;;27.20;99.90;;;;;;5033341;28;20175;-67
2022/08/16 08:40:32;;;;;;;35.17;7.03;;;27.10;99.90;;;;;;5022245;28;20437;-67
2022/08/16 08:42:59;;;;;;;46.63;6.67;;;27.20;99.90;;;;;;5030809;28;20462;-67
2022/08/16 08:45:25;;;;;;;22.77;6.00;;;27.50;99.90;;;;;;5029577;28;20198;-68
2022/08/16 08:47:51;;;;;;;14.47;5.20;;;27.70;99.90;;;;;;5029067;28;20425;-69
2022/08/16 08:50:17;;;;;;;6.60;4.37;;;27.80;99.90;;;;;;5029028;28;20683;-66
2022/08/16 08:52:44;;;;;;;12.83;5.57;;;27.90;99.90;;;;;;5030338;28;20428;-68
2022/08/16 08:55:13;;;;;;;13.67;5.40;;;27.70;99.90;;;;;;5029848;28;20428;-68
2022/08/16 08:57:44;;;;;;;21.63;5.67;;;27.80;99.90;;;;;;5029806;28;20414;-68
2022/08/16 09:00:11;;;;;;;31.73;7.10;;;28.00;99.90;;;;;;5029797;28;20433;-68
2022/08/16 09:02:37;;;;;;;36.03;6.73;;;28.00;99.90;;;;;;5031008;28;20405;-67
2022/08/16 09:05:03;;;;;;;24.10;6.60;;;28.00;99.90;;;;;;5031030;28;20430;-68
2022/08/16 09:07:29;;;;;;;12.47;6.57;;;28.10;99.90;;;;;;5030338;28;20182;-67
2022/08/16 09:09:55;;;;;;;12.23;6.37;;;28.10;99.90;;;;;;5028120;28;20465;-68
2022/08/16 09:12:21;;;;;;;13.33;5.27;;;28.00;99.90;;;;;;5028769;28;20242;-67
2022/08/16 09:14:46;;;;;;;9.83;5.10;;;28.20;99.90;;;;;;5028408;28;20235;-66
2022/08/16 09:17:12;;;;;;;25.13;6.17;;;27.80;99.90;;;;;;5029084;28;21082;-67
2022/08/16 09:19:39;;;;;;;22.13;6.70;;;27.70;99.90;;;;;;5031134;28;20575;-67
2022/08/16 09:22:05;;;;;;;59.87;11.63;;;27.80;99.90;;;;;;5029778;28;20175;-67
2022/08/16 09:24:32;;;;;;;16.10;8.87;;;28.00;99.90;;;;;;5030533;28;20417;-68
2022/08/16 09:26:58;;;;;;;10.53;5.40;;;28.20;98.10;;;;;;5028769;28;20735;-67
2022/08/16 09:29:24;;;;;;;25.33;7.40;;;28.40;97.40;;;;;;5026975;28;20414;-66
2022/08/16 09:31:50;;;;;;;14.10;5.73;;;28.60;96.30;;;;;;5027701;28;20175;-66
2022/08/16 09:34:16;;;;;;;19.23;6.30;;;28.50;94.50;;;;;;5028961;28;20532;-63
2022/08/16 09:36:42;;;;;;;9.23;5.87;;;28.70;93.90;;;;;;5027380;28;20537;-65
2022/08/16 09:39:08;;;;;;;42.60;9.00;;;28.80;91.40;;;;;;5009953;28;20769;-66
2022/08/16 09:41:35;;;;;;;18.87;7.10;;;28.70;90.10;;;;;;5021551;28;20410;-65
2022/08/16 09:44:02;;;;;;;16.37;6.10;;;28.80;87.60;;;;;;5029380;28;20719;-65
2022/08/16 09:46:29;;;;;;;8.73;6.00;;;28.80;86.60;;;;;;5029122;28;20425;-65
2022/08/16 09:48:57;;;;;;;21.23;7.07;;;28.80;83.40;;;;;;5028621;28;20499;-64
2022/08/16 09:51:25;;;;;;;29.70;8.50;;;28.50;81.00;;;;;;5028945;28;20443;-65
2022/08/16 09:53:52;;;;;;;19.33;7.23;;;28.50;79.20;;;;;;5021416;28;20407;-65
2022/08/16 09:56:30;;;;;;;10.77;5.93;;;28.40;77.70;;;;;;5008500;28;20512;-65
2022/08/16 09:58:59;;;;;;;8.93;6.53;;;28.30;77.50;;;;;;5008518;28;20808;-64
2022/08/16 10:01:24;;;;;;;6.20;4.80;;;28.20;73.60;;;;;;5008966;28;20848;-64
2022/08/16 10:03:52;;;;;;;14.57;6.63;;;28.20;73.70;;;;;;5009197;28;20399;-64
2022/08/16 10:06:20;;;;;;;10.47;7.20;;;28.00;72.60;;;;;;4991087;28;20596;-64
2022/08/16 10:08:47;;;;;;;10.23;7.27;;;27.60;73.80;;;;;;5006582;28;20493;-65
2022/08/16 10:13:57;;;;;;;24.73;7.30;;;28.20;74.20;;;;;;5028697;28;20535;-66
2022/08/16 10:16:24;;;;;;;49.47;8.83;;;28.50;72.80;;;;;;5028683;28;20771;-65
2022/08/16 10:18:49;;;;;;;7.63;5.50;;;28.70;69.30;;;;;;5027970;28;20221;-66
2022/08/16 10:21:15;;;;;;;9.93;5.80;;;28.70;64.50;;;;;;5028398;28;20782;-65
2022/08/16 10:23:45;;;;;;;15.90;5.70;;;28.40;62.50;;;;;;5028519;28;20253;-66
2022/08/16 10:26:12;;;;;;;12.37;6.93;;;28.60;61.90;;;;;;5027916;28;20267;-65
2022/08/16 10:28:38;;;;;;;8.83;6.30;;;28.80;59.00;;;;;;5027123;28;20509;-64
2022/08/16 10:31:05;;;;;;;10.10;6.10;;;29.00;55.60;;;;;;5032499;28;20585;-65
2022/08/16 10:33:32;;;;;;;6.50;5.00;;;29.00;55.10;;;;;;5047632;28;20541;-64
2022/08/16 10:35:59;;;;;;;18.80;6.77;;;28.90;53.00;;;;;;5047735;28;21198;-66
2022/08/16 10:38:26;;;;;;;21.63;7.40;;;28.90;52.80;;;;;;5047230;28;20460;-64
2022/08/16 10:40:53;;;;;;;11.07;6.30;;;29.20;52.00;;;;;;5040707;28;20409;-65
2022/08/16 10:43:19;;;;;;;18.10;6.10;;;28.80;50.90;;;;;;5028455;28;20895;-65
2022/08/16 10:45:46;;;;;;;17.13;7.50;;;28.30;50.50;;;;;;5028551;28;20475;-66
2022/08/16 10:48:12;;;;;;;17.27;6.87;;;28.40;51.40;;;;;;5027727;28;20174;-65
2022/08/16 10:50:38;;;;;;;37.47;8.00;;;28.60;50.50;;;;;;5028464;28;20406;-64
2022/08/16 10:53:05;;;;;;;11.77;5.77;;;28.40;49.20;;;;;;5027296;28;20573;-63
2022/08/16 10:55:39;;;;;;;8.80;5.83;;;28.40;50.10;;;;;;5027706;28;20199;-64
2022/08/16 10:58:06;;;;;;;5.70;5.00;;;28.50;47.30;;;;;;5028038;28;20409;-65
2022/08/16 11:00:33;;;;;;;32.07;9.10;;;28.50;46.00;;;;;;5028466;28;20451;-66
2022/08/16 11:03:01;;;;;;;18.83;8.70;;;28.40;45.80;;;;;;5027793;28;20406;-65
2022/08/16 11:05:28;;;;;;;29.97;8.23;;;27.80;45.20;;;;;;5028804;28;20508;-64
2022/08/16 11:07:54;;;;;;;21.20;6.70;;;27.90;46.50;;;;;;5028465;28;20402;-65
2022/08/16 11:10:32;;;;;;;20.53;6.97;;;27.60;46.40;;;;;;5027678;28;20444;-65
2022/08/16 11:12:58;;;;;;;29.77;7.90;;;27.50;46.10;;;;;;5028417;28;20163;-65
2022/08/16 11:15:24;;;;;;;16.80;6.40;;;27.80;46.80;;;;;;5027524;28;20422;-64
2022/08/16 11:17:51;;;;;;;40.20;8.50;;;28.20;46.80;;;;;;5028279;28;20386;-65
2022/08/16 11:20:18;;;;;;;22.47;7.00;;;28.30;46.20;;;;;;5027966;28;20405;-65
2022/08/16 11:22:46;;;;;;;105.70;16.33;;;28.40;46.50;;;;;;5029670;28;20910;-64
2022/08/16 11:25:14;;;;;;;15.43;6.20;;;28.60;45.90;;;;;;5029573;28;20410;-64
2022/08/16 11:27:40;;;;;;;10.50;5.40;;;28.60;45.50;;;;;;5032517;28;20406;-62
2022/08/16 11:30:08;;;;;;;30.30;8.37;;;28.20;44.60;;;;;;5031382;28;20432;-64
2022/08/16 11:32:35;;;;;;;20.03;8.90;;;28.20;45.80;;;;;;5046850;28;20480;-65
2022/08/16 11:35:05;;;;;;;8.17;5.77;;;28.50;45.30;;;;;;5050471;28;20468;-65
2022/08/16 11:37:33;;;;;;;15.43;6.50;;;28.70;44.20;;;;;;5048940;28;20546;-67
2022/08/16 11:39:58;;;;;;;8.63;4.97;;;28.90;43.50;;;;;;5052763;28;20412;-67
2022/08/16 11:42:24;;;;;;;7.47;4.97;;;28.90;42.60;;;;;;5013360;28;20964;-67
2022/08/16 11:44:50;;;;;;;5.37;4.87;;;28.80;41.20;;;;;;5016413;28;20246;-68
2022/08/16 11:47:16;;;;;;;6.20;5.60;;;28.70;40.40;;;;;;5020822;28;20685;-68
2022/08/16 11:49:42;;;;;;;11.63;5.50;;;28.50;40.00;;;;;;5036350;28;20201;-68
2022/08/16 11:52:08;;;;;;;26.30;6.27;;;28.50;38.70;;;;;;5033403;28;20410;-64
2022/08/16 11:54:34;;;;;;;9.40;5.33;;;28.60;38.60;;;;;;5028273;28;20537;-64
2022/08/16 11:57:00;;;;;;;6.40;5.13;;;28.30;37.70;;;;;;5028591;28;20203;-65
2022/08/16 11:59:28;;;;;;;17.63;6.87;;;28.00;37.40;;;;;;5031163;28;20417;-65
2022/08/16 12:01:54;;;;;;;44.30;8.70;;;28.20;38.20;;;;;;5029876;28;20199;-64
2022/08/16 12:04:20;;;;;;;14.60;5.93;;;28.20;38.10;;;;;;5032008;28;20448;-65
2022/08/16 12:06:46;;;;;;;6.00;5.10;;;28.30;38.50;;;;;;5030802;28;20477;-64
2022/08/16 12:09:12;;;;;;;12.50;5.70;;;28.40;37.60;;;;;;5031584;28;20163;-62
2022/08/16 12:11:38;;;;;;;13.17;5.50;;;28.50;37.40;;;;;;5029776;28;20567;-63
2022/08/16 12:14:06;;;;;;;11.40;6.10;;;28.50;36.40;;;;;;5031214;28;20220;-65
2022/08/16 12:16:34;;;;;;;19.27;6.50;;;28.40;36.00;;;;;;5031332;28;20222;-68
2022/08/16 12:19:05;;;;;;;15.77;6.30;;;28.30;36.30;;;;;;5027249;28;20418;-68
2022/08/16 12:21:31;;;;;;;6.43;4.87;;;28.30;35.10;;;;;;5013453;28;20525;-66
2022/08/16 12:23:57;;;;;;;10.20;5.27;;;28.10;34.80;;;;;;5011954;28;20406;-66
2022/08/16 12:26:23;;;;;;;5.63;5.00;;;27.80;33.40;;;;;;5011472;28;20942;-68
2022/08/16 12:28:50;;;;;;;9.87;5.70;;;27.40;32.60;;;;;;5028896;28;20175;-68
2022/08/16 12:31:16;;;;;;;11.10;5.00;;;27.50;34.50;;;;;;5037094;28;20169;-67
2022/08/16 12:33:42;;;;;;;5.10;4.60;;;27.60;35.10;;;;;;5050509;28;20413;-69
2022/08/16 12:36:08;;;;;;;7.93;5.23;;;28.00;34.70;;;;;;5038983;28;20324;-70
2022/08/16 12:38:34;;;;;;;12.67;4.97;;;28.10;34.40;;;;;;5029904;28;20787;-69
2022/08/16 12:41:00;;;;;;;9.97;4.73;;;28.00;34.30;;;;;;5030995;28;20418;-68
2022/08/16 12:43:27;;;;;;;17.33;5.60;;;27.40;34.50;;;;;;5031149;28;20163;-69